sensor_id;sensor_type;location;lat;lon;timestamp;temperature;humidity
26304;DHT22;57113;48.680;8.890;2022-10-16T00:00:18;17.30;99.90
26304;DHT22;57113;48.680;8.890;2022-10-16T00:02:43;17.30;99.90
26304;DHT22;57113;48.680;8.890;2022-10-16T00:05:09;17.30;99.90
26304;DHT22;57113;48.680;8.890;2022-10-16T00:07:35;17.30;99.90
26304;DHT22;57113;48.680;8.890;2022-10-16T00:10:00;17.30;99.90
26304;DHT22;57113;48.680;8.890;2022-10-16T00:12:26;17.30;99.90
26304;DHT22;57113;48.680;8.890;2022-10-16T00:14:51;17.30;99.90
26304;DHT22;57113;48.680;8.890;2022-10-16T00:17:17;17.30;99.90
26304;DHT22;57113;48.680;8.890;2022-10-16T00:19:42;17.30;99.90
26304;DHT22;57113;48.680;8.890;2022-10-16T00:22:08;17.30;99.90
26304;DHT22;57113;48.680;8.890;2022-10-16T00:24:33;17.30;99.90
26304;DHT22;57113;48.680;8.890;2022-10-16T00:26:59;17.30;99.90
26304;DHT22;57113;48.680;8.890;2022-10-16T00:29:24;17.20;99.90
26304;DHT22;57113;48.680;8.890;2022-10-16T00:31:50;17.20;99.90
26304;DHT22;57113;48.680;8.890;2022-10-16T00:34:15;17.20;99.90
26304;DHT22;57113;48.680;8.890;2022-10-16T00:36:41;17.20;99.90
26304;DHT22;57113;48.680;8.890;2022-10-16T00:39:06;17.20;99.90
26304;DHT22;57113;48.680;8.890;2022-10-16T00:41:32;17.20;99.90
26304;DHT22;57113;48.680;8.890;2022-10-16T00:43:59;17.30;99.90
26304;DHT22;57113;48.680;8.890;2022-10-16T00:46:26;17.20;99.90
26304;DHT22;57113;48.680;8.890;2022-10-16T00:49:07;17.30;99.90
26304;DHT22;57113;48.680;8.890;2022-10-16T00:51:43;17.30;99.90
26304;DHT22;57113;48.680;8.890;2022-10-16T00:54:18;17.20;99.90
26304;DHT22;57113;48.680;8.890;2022-10-16T00:56:45;17.30;99.90
26304;DHT22;57113;48.680;8.890;2022-10-16T00:59:30;17.30;99.90
26304;DHT22;57113;48.680;8.890;2022-10-16T01:01:56;17.30;99.90
26304;DHT22;57113;48.680;8.890;2022-10-16T01:04:23;17.30;99.90
26304;DHT22;57113;48.680;8.890;2022-10-16T01:12:01;17.20;99.90
26304;DHT22;57113;48.680;8.890;2022-10-16T01:14:40;17.20;99.90
26304;DHT22;57113;48.680;8.890;2022-10-16T01:19:40;17.30;99.90
26304;DHT22;57113;48.680;8.890;2022-10-16T01:22:09;17.30;99.90
26304;DHT22;57113;48.680;8.890;2022-10-16T01:24:39;17.20;99.90
26304;DHT22;57113;48.680;8.890;2022-10-16T01:29:39;17.20;99.90
26304;DHT22;57113;48.680;8.890;2022-10-16T01:34:48;17.20;99.90
26304;DHT22;57113;48.680;8.890;2022-10-16T01:37:16;17.20;99.90
26304;DHT22;57113;48.680;8.890;2022-10-16T01:39:45;17.20;99.90
26304;DHT22;57113;48.680;8.890;2022-10-16T01:42:11;17.20;99.90
26304;DHT22;57113;48.680;8.890;2022-10-16T01:44:38;17.20;99.90
26304;DHT22;57113;48.680;8.890;2022-10-16T01:47:04;17.20;99.90
26304;DHT22;57113;48.680;8.890;2022-10-16T01:49:31;17.20;99.90
26304;DHT22;57113;48.680;8.890;2022-10-16T01:51:59;17.20;99.90
26304;DHT22;57113;48.680;8.890;2022-10-16T01:54:28;17.20;99.90
26304;DHT22;57113;48.680;8.890;2022-10-16T01:56:55;17.20;99.90
26304;DHT22;57113;48.680;8.890;2022-10-16T01:59:22;17.20;99.90
26304;DHT22;57113;48.680;8.890;2022-10-16T02:01:50;17.20;99.90
26304;DHT22;57113;48.680;8.890;2022-10-16T02:06:43;17.20;99.90
26304;DHT22;57113;48.680;8.890;2022-10-16T02:09:09;17.20;99.90
26304;DHT22;57113;48.680;8.890;2022-10-16T02:11:34;17.20;99.90
26304;DHT22;57113;48.680;8.890;2022-10-16T02:14:06;17.20;99.90
26304;DHT22;57113;48.680;8.890;2022-10-16T02:16:33;17.20;99.90
26304;DHT22;57113;48.680;8.890;2022-10-16T02:18:58;17.20;99.90
26304;DHT22;57113;48.680;8.890;2022-10-16T02:21:40;17.20;99.90
26304;DHT22;57113;48.680;8.890;2022-10-16T02:29:17;17.20;99.90
26304;DHT22;57113;48.680;8.890;2022-10-16T02:31:46;17.20;99.90
26304;DHT22;57113;48.680;8.890;2022-10-16T02:34:13;17.20;99.90
26304;DHT22;57113;48.680;8.890;2022-10-16T02:36:40;17.20;99.90
26304;DHT22;57113;48.680;8.890;2022-10-16T02:39:06;17.20;99.90
26304;DHT22;57113;48.680;8.890;2022-10-16T02:41:32;17.20;99.90
26304;DHT22;57113;48.680;8.890;2022-10-16T02:43:57;17.20;99.90
26304;DHT22;57113;48.680;8.890;2022-10-16T02:46:23;17.20;99.90
26304;DHT22;57113;48.680;8.890;2022-10-16T02:48:48;17.20;99.90
26304;DHT22;57113;48.680;8.890;2022-10-16T02:51:14;17.20;99.90
26304;DHT22;57113;48.680;8.890;2022-10-16T02:53:39;17.20;99.90
26304;DHT22;57113;48.680;8.890;2022-10-16T02:56:05;17.20;99.90
26304;DHT22;57113;48.680;8.890;2022-10-16T02:58:31;17.20;99.90
26304;DHT22;57113;48.680;8.890;2022-10-16T03:00:56;17.20;99.90
26304;DHT22;57113;48.680;8.890;2022-10-16T03:03:22;17.20;99.90
26304;DHT22;57113;48.680;8.890;2022-10-16T03:05:47;17.20;99.90
26304;DHT22;57113;48.680;8.890;2022-10-16T03:08:13;17.20;99.90
26304;DHT22;57113;48.680;8.890;2022-10-16T03:10:39;17.20;99.90
26304;DHT22;57113;48.680;8.890;2022-10-16T03:13:04;17.20;99.90
26304;DHT22;57113;48.680;8.890;2022-10-16T03:15:30;17.20;99.90
26304;DHT22;57113;48.680;8.890;2022-10-16T03:17:58;17.20;99.90
26304;DHT22;57113;48.680;8.890;2022-10-16T03:20:24;17.20;99.90
26304;DHT22;57113;48.680;8.890;2022-10-16T03:22:50;17.20;99.90
26304;DHT22;57113;48.680;8.890;2022-10-16T03:25:15;17.20;99.90
26304;DHT22;57113;48.680;8.890;2022-10-16T03:27:43;17.20;99.90
26304;DHT22;57113;48.680;8.890;2022-10-16T03:30:09;17.20;99.90
26304;DHT22;57113;48.680;8.890;2022-10-16T03:32:34;17.20;99.90
26304;DHT22;57113;48.680;8.890;2022-10-16T03:35:00;17.20;99.90
26304;DHT22;57113;48.680;8.890;2022-10-16T03:37:25;17.20;99.90
26304;DHT22;57113;48.680;8.890;2022-10-16T03:39:51;17.20;99.90
26304;DHT22;57113;48.680;8.890;2022-10-16T03:42:16;17.10;99.90
26304;DHT22;57113;48.680;8.890;2022-10-16T03:44:42;17.10;99.90
26304;DHT22;57113;48.680;8.890;2022-10-16T03:47:07;17.10;99.90
26304;DHT22;57113;48.680;8.890;2022-10-16T03:49:33;17.10;99.90
26304;DHT22;57113;48.680;8.890;2022-10-16T03:51:58;17.10;99.90
26304;DHT22;57113;48.680;8.890;2022-10-16T03:54:24;17.10;99.90
26304;DHT22;57113;48.680;8.890;2022-10-16T03:56:49;17.10;99.90
26304;DHT22;57113;48.680;8.890;2022-10-16T03:59:15;17.10;99.90
26304;DHT22;57113;48.680;8.890;2022-10-16T04:01:40;17.10;99.90
26304;DHT22;57113;48.680;8.890;2022-10-16T04:04:06;17.10;99.90
26304;DHT22;57113;48.680;8.890;2022-10-16T04:06:31;17.10;99.90
26304;DHT22;57113;48.680;8.890;2022-10-16T04:08:57;17.10;99.90
26304;DHT22;57113;48.680;8.890;2022-10-16T04:11:22;17.10;99.90
26304;DHT22;57113;48.680;8.890;2022-10-16T04:13:48;17.10;99.90
26304;DHT22;57113;48.680;8.890;2022-10-16T04:16:13;17.10;99.90
26304;DHT22;57113;48.680;8.890;2022-10-16T04:18:39;17.10;99.90
26304;DHT22;57113;48.680;8.890;2022-10-16T04:21:05;17.20;99.90
26304;DHT22;57113;48.680;8.890;2022-10-16T04:23:31;17.10;99.90
26304;DHT22;57113;48.680;8.890;2022-10-16T04:25:57;17.10;99.90
26304;DHT22;57113;48.680;8.890;2022-10-16T04:28:22;17.20;99.90
26304;DHT22;57113;48.680;8.890;2022-10-16T04:30:48;17.10;99.90
26304;DHT22;57113;48.680;8.890;2022-10-16T04:33:14;17.10;99.90
26304;DHT22;57113;48.680;8.890;2022-10-16T04:35:39;17.10;99.90
26304;DHT22;57113;48.680;8.890;2022-10-16T04:38:05;17.10;99.90
26304;DHT22;57113;48.680;8.890;2022-10-16T04:40:30;17.10;99.90
26304;DHT22;57113;48.680;8.890;2022-10-16T04:43:01;17.10;99.90
26304;DHT22;57113;48.680;8.890;2022-10-16T04:45:26;17.10;99.90
26304;DHT22;57113;48.680;8.890;2022-10-16T04:47:52;17.10;99.90
26304;DHT22;57113;48.680;8.890;2022-10-16T04:50:17;17.10;99.90
26304;DHT22;57113;48.680;8.890;2022-10-16T04:52:43;17.10;99.90
26304;DHT22;57113;48.680;8.890;2022-10-16T04:55:08;17.10;99.90
26304;DHT22;57113;48.680;8.890;2022-10-16T04:57:34;17.10;99.90
26304;DHT22;57113;48.680;8.890;2022-10-16T04:59:59;17.10;99.90
26304;DHT22;57113;48.680;8.890;2022-10-16T05:02:25;17.10;99.90
26304;DHT22;57113;48.680;8.890;2022-10-16T05:04:51;17.10;99.90
26304;DHT22;57113;48.680;8.890;2022-10-16T05:07:17;17.10;99.90
26304;DHT22;57113;48.680;8.890;2022-10-16T05:09:42;17.10;99.90
26304;DHT22;57113;48.680;8.890;2022-10-16T05:12:08;17.10;99.90
26304;DHT22;57113;48.680;8.890;2022-10-16T05:14:33;17.10;99.90
26304;DHT22;57113;48.680;8.890;2022-10-16T05:16:59;17.10;99.90
26304;DHT22;57113;48.680;8.890;2022-10-16T05:19:25;17.10;99.90
26304;DHT22;57113;48.680;8.890;2022-10-16T05:21:50;17.10;99.90
26304;DHT22;57113;48.680;8.890;2022-10-16T05:24:16;17.10;99.90
26304;DHT22;57113;48.680;8.890;2022-10-16T05:26:41;17.10;99.90
26304;DHT22;57113;48.680;8.890;2022-10-16T05:29:07;17.10;99.90
26304;DHT22;57113;48.680;8.890;2022-10-16T05:31:32;17.10;99.90
26304;DHT22;57113;48.680;8.890;2022-10-16T05:33:58;17.10;99.90
26304;DHT22;57113;48.680;8.890;2022-10-16T05:36:24;17.10;99.90
26304;DHT22;57113;48.680;8.890;2022-10-16T05:38:50;17.10;99.90
26304;DHT22;57113;48.680;8.890;2022-10-16T05:41:16;17.10;99.90
26304;DHT22;57113;48.680;8.890;2022-10-16T05:43:46;17.10;99.90
26304;DHT22;57113;48.680;8.890;2022-10-16T05:46:12;17.10;99.90
26304;DHT22;57113;48.680;8.890;2022-10-16T05:48:38;17.10;99.90
26304;DHT22;57113;48.680;8.890;2022-10-16T05:51:04;17.10;99.90
26304;DHT22;57113;48.680;8.890;2022-10-16T05:53:31;17.10;99.90
26304;DHT22;57113;48.680;8.890;2022-10-16T05:55:57;17.10;99.90
26304;DHT22;57113;48.680;8.890;2022-10-16T05:58:23;17.10;99.90
26304;DHT22;57113;48.680;8.890;2022-10-16T06:00:55;17.10;99.90
26304;DHT22;57113;48.680;8.890;2022-10-16T06:03:21;17.10;99.90
26304;DHT22;57113;48.680;8.890;2022-10-16T06:05:47;17.10;99.90
26304;DHT22;57113;48.680;8.890;2022-10-16T06:08:12;17.10;99.90
26304;DHT22;57113;48.680;8.890;2022-10-16T06:10:38;17.10;99.90
26304;DHT22;57113;48.680;8.890;2022-10-16T06:13:03;17.10;99.90
26304;DHT22;57113;48.680;8.890;2022-10-16T06:15:29;17.10;99.90
26304;DHT22;57113;48.680;8.890;2022-10-16T06:17:54;17.10;99.90
26304;DHT22;57113;48.680;8.890;2022-10-16T06:20:20;17.10;99.90
26304;DHT22;57113;48.680;8.890;2022-10-16T06:22:45;17.10;99.90
26304;DHT22;57113;48.680;8.890;2022-10-16T06:25:11;17.10;99.90
26304;DHT22;57113;48.680;8.890;2022-10-16T06:27:38;17.10;99.90
26304;DHT22;57113;48.680;8.890;2022-10-16T06:30:04;17.00;99.90
26304;DHT22;57113;48.680;8.890;2022-10-16T06:32:30;17.00;99.90
26304;DHT22;57113;48.680;8.890;2022-10-16T06:34:55;17.00;99.90
26304;DHT22;57113;48.680;8.890;2022-10-16T06:37:21;17.00;99.90
26304;DHT22;57113;48.680;8.890;2022-10-16T06:39:47;17.00;99.90
26304;DHT22;57113;48.680;8.890;2022-10-16T06:42:12;17.00;99.90
26304;DHT22;57113;48.680;8.890;2022-10-16T06:44:38;17.00;99.90
26304;DHT22;57113;48.680;8.890;2022-10-16T06:47:03;17.00;99.90
26304;DHT22;57113;48.680;8.890;2022-10-16T06:49:29;17.00;99.90
26304;DHT22;57113;48.680;8.890;2022-10-16T06:51:54;17.00;99.90
26304;DHT22;57113;48.680;8.890;2022-10-16T06:54:20;17.00;99.90
26304;DHT22;57113;48.680;8.890;2022-10-16T06:56:45;17.00;99.90
26304;DHT22;57113;48.680;8.890;2022-10-16T06:59:11;17.00;99.90
26304;DHT22;57113;48.680;8.890;2022-10-16T07:01:36;17.00;99.90
26304;DHT22;57113;48.680;8.890;2022-10-16T07:04:02;17.00;99.90
26304;DHT22;57113;48.680;8.890;2022-10-16T07:06:30;17.00;99.90
26304;DHT22;57113;48.680;8.890;2022-10-16T07:08:55;17.00;99.90
26304;DHT22;57113;48.680;8.890;2022-10-16T07:11:22;17.00;99.90
26304;DHT22;57113;48.680;8.890;2022-10-16T07:13:48;17.00;99.90
26304;DHT22;57113;48.680;8.890;2022-10-16T07:16:15;17.00;99.90
26304;DHT22;57113;48.680;8.890;2022-10-16T07:18:40;17.00;99.90
26304;DHT22;57113;48.680;8.890;2022-10-16T07:21:11;17.00;99.90
26304;DHT22;57113;48.680;8.890;2022-10-16T07:23:37;17.00;99.90
26304;DHT22;57113;48.680;8.890;2022-10-16T07:26:03;17.00;99.90
26304;DHT22;57113;48.680;8.890;2022-10-16T07:28:29;17.00;99.90
26304;DHT22;57113;48.680;8.890;2022-10-16T07:30:55;16.90;99.90
26304;DHT22;57113;48.680;8.890;2022-10-16T07:33:20;17.00;99.90
26304;DHT22;57113;48.680;8.890;2022-10-16T07:35:52;17.00;99.90
26304;DHT22;57113;48.680;8.890;2022-10-16T07:38:18;17.00;99.90
26304;DHT22;57113;48.680;8.890;2022-10-16T07:40:44;17.00;99.90
26304;DHT22;57113;48.680;8.890;2022-10-16T07:43:09;17.00;99.90
26304;DHT22;57113;48.680;8.890;2022-10-16T07:45:35;17.00;99.90
26304;DHT22;57113;48.680;8.890;2022-10-16T07:48:00;17.00;99.90
26304;DHT22;57113;48.680;8.890;2022-10-16T07:50:26;16.90;99.90
26304;DHT22;57113;48.680;8.890;2022-10-16T07:52:51;16.90;99.90
26304;DHT22;57113;48.680;8.890;2022-10-16T07:55:17;16.90;99.90
26304;DHT22;57113;48.680;8.890;2022-10-16T07:57:42;16.90;99.90
26304;DHT22;57113;48.680;8.890;2022-10-16T08:00:08;16.90;99.90
26304;DHT22;57113;48.680;8.890;2022-10-16T08:02:39;16.90;99.90
26304;DHT22;57113;48.680;8.890;2022-10-16T08:05:05;16.90;99.90
26304;DHT22;57113;48.680;8.890;2022-10-16T08:07:30;16.90;99.90
26304;DHT22;57113;48.680;8.890;2022-10-16T08:09:56;16.90;99.90
26304;DHT22;57113;48.680;8.890;2022-10-16T08:12:23;16.90;99.90
26304;DHT22;57113;48.680;8.890;2022-10-16T08:14:48;16.90;99.90
26304;DHT22;57113;48.680;8.890;2022-10-16T08:17:14;17.00;99.90
26304;DHT22;57113;48.680;8.890;2022-10-16T08:19:43;17.00;99.90
26304;DHT22;57113;48.680;8.890;2022-10-16T08:22:09;17.00;99.90
26304;DHT22;57113;48.680;8.890;2022-10-16T08:24:34;17.10;99.90
26304;DHT22;57113;48.680;8.890;2022-10-16T08:27:00;17.10;99.90
26304;DHT22;57113;48.680;8.890;2022-10-16T08:29:25;17.10;99.90
26304;DHT22;57113;48.680;8.890;2022-10-16T08:31:51;17.10;99.90
26304;DHT22;57113;48.680;8.890;2022-10-16T08:34:17;17.10;99.90
26304;DHT22;57113;48.680;8.890;2022-10-16T08:36:42;17.10;99.90
26304;DHT22;57113;48.680;8.890;2022-10-16T08:39:08;17.10;99.90
26304;DHT22;57113;48.680;8.890;2022-10-16T08:49:06;17.10;99.90
26304;DHT22;57113;48.680;8.890;2022-10-16T08:51:36;17.10;99.90
26304;DHT22;57113;48.680;8.890;2022-10-16T08:56:37;17.10;99.90
26304;DHT22;57113;48.680;8.890;2022-10-16T08:59:03;17.10;99.90
26304;DHT22;57113;48.680;8.890;2022-10-16T09:01:42;17.10;99.90
26304;DHT22;57113;48.680;8.890;2022-10-16T09:14:51;17.30;99.90
26304;DHT22;57113;48.680;8.890;2022-10-16T09:20:03;17.30;99.90
26304;DHT22;57113;48.680;8.890;2022-10-16T09:22:33;17.40;99.90
26304;DHT22;57113;48.680;8.890;2022-10-16T09:24:59;17.40;99.90
26304;DHT22;57113;48.680;8.890;2022-10-16T09:27:26;17.40;99.90
26304;DHT22;57113;48.680;8.890;2022-10-16T09:29:51;17.40;99.90
26304;DHT22;57113;48.680;8.890;2022-10-16T09:32:20;17.50;99.90
26304;DHT22;57113;48.680;8.890;2022-10-16T09:34:52;17.50;99.90
26304;DHT22;57113;48.680;8.890;2022-10-16T09:37:20;17.50;99.90
26304;DHT22;57113;48.680;8.890;2022-10-16T09:39:47;17.50;99.90
26304;DHT22;57113;48.680;8.890;2022-10-16T09:42:17;17.50;99.90
26304;DHT22;57113;48.680;8.890;2022-10-16T09:44:46;17.50;99.90
26304;DHT22;57113;48.680;8.890;2022-10-16T09:47:13;17.50;99.90
26304;DHT22;57113;48.680;8.890;2022-10-16T09:49:49;17.50;99.90
26304;DHT22;57113;48.680;8.890;2022-10-16T09:52:15;17.50;99.90
26304;DHT22;57113;48.680;8.890;2022-10-16T09:55:12;17.60;99.90
26304;DHT22;57113;48.680;8.890;2022-10-16T09:57:27;17.60;99.90
26304;DHT22;57113;48.680;8.890;2022-10-16T09:59:54;17.60;99.90
26304;DHT22;57113;48.680;8.890;2022-10-16T10:02:23;17.70;99.90
26304;DHT22;57113;48.680;8.890;2022-10-16T10:04:52;17.70;99.90
26304;DHT22;57113;48.680;8.890;2022-10-16T10:07:24;17.80;99.90
26304;DHT22;57113;48.680;8.890;2022-10-16T10:09:50;17.80;99.90
26304;DHT22;57113;48.680;8.890;2022-10-16T10:12:20;17.90;99.90
26304;DHT22;57113;48.680;8.890;2022-10-16T10:14:49;18.00;99.90
26304;DHT22;57113;48.680;8.890;2022-10-16T10:17:25;18.00;99.90
26304;DHT22;57113;48.680;8.890;2022-10-16T10:24:43;18.10;99.90
26304;DHT22;57113;48.680;8.890;2022-10-16T10:27:10;18.10;99.90
26304;DHT22;57113;48.680;8.890;2022-10-16T10:32:27;18.10;99.90
26304;DHT22;57113;48.680;8.890;2022-10-16T10:40:27;18.00;99.90
26304;DHT22;57113;48.680;8.890;2022-10-16T10:43:17;18.10;99.90
26304;DHT22;57113;48.680;8.890;2022-10-16T10:45:48;18.10;99.90
26304;DHT22;57113;48.680;8.890;2022-10-16T10:48:27;18.20;99.90
26304;DHT22;57113;48.680;8.890;2022-10-16T10:53:31;18.20;99.90
26304;DHT22;57113;48.680;8.890;2022-10-16T11:01:10;18.30;99.90
26304;DHT22;57113;48.680;8.890;2022-10-16T11:06:26;18.40;99.90
26304;DHT22;57113;48.680;8.890;2022-10-16T11:08:55;18.40;99.90
26304;DHT22;57113;48.680;8.890;2022-10-16T11:11:25;18.40;99.90
26304;DHT22;57113;48.680;8.890;2022-10-16T11:16:28;18.40;99.90
26304;DHT22;57113;48.680;8.890;2022-10-16T11:21:23;18.40;99.90
26304;DHT22;57113;48.680;8.890;2022-10-16T11:26:27;18.30;99.90
26304;DHT22;57113;48.680;8.890;2022-10-16T11:28:54;18.30;99.90
26304;DHT22;57113;48.680;8.890;2022-10-16T11:33:48;18.30;99.90
26304;DHT22;57113;48.680;8.890;2022-10-16T11:36:18;18.40;99.90
26304;DHT22;57113;48.680;8.890;2022-10-16T11:39:03;18.40;99.90
26304;DHT22;57113;48.680;8.890;2022-10-16T11:44:06;18.50;99.90
26304;DHT22;57113;48.680;8.890;2022-10-16T11:46:35;18.50;99.90
26304;DHT22;57113;48.680;8.890;2022-10-16T11:49:14;18.60;99.90
26304;DHT22;57113;48.680;8.890;2022-10-16T11:54:32;18.60;99.90
26304;DHT22;57113;48.680;8.890;2022-10-16T11:57:02;18.60;99.90
26304;DHT22;57113;48.680;8.890;2022-10-16T12:07:27;18.70;99.90
26304;DHT22;57113;48.680;8.890;2022-10-16T12:09:57;18.70;99.90
26304;DHT22;57113;48.680;8.890;2022-10-16T12:12:27;18.70;99.90
26304;DHT22;57113;48.680;8.890;2022-10-16T12:15:03;18.70;99.90
26304;DHT22;57113;48.680;8.890;2022-10-16T12:17:42;18.60;99.90
26304;DHT22;57113;48.680;8.890;2022-10-16T12:22:37;18.60;99.90
26304;DHT22;57113;48.680;8.890;2022-10-16T12:25:17;18.60;99.90
26304;DHT22;57113;48.680;8.890;2022-10-16T12:27:44;18.60;99.90
26304;DHT22;57113;48.680;8.890;2022-10-16T12:30:14;18.60;99.90
26304;DHT22;57113;48.680;8.890;2022-10-16T12:32:45;18.50;99.90
26304;DHT22;57113;48.680;8.890;2022-10-16T12:35:19;18.50;99.90
26304;DHT22;57113;48.680;8.890;2022-10-16T12:37:45;18.50;99.90
26304;DHT22;57113;48.680;8.890;2022-10-16T12:40:33;18.50;99.90
26304;DHT22;57113;48.680;8.890;2022-10-16T12:42:57;18.40;99.90
26304;DHT22;57113;48.680;8.890;2022-10-16T12:47:52;18.40;99.90
26304;DHT22;57113;48.680;8.890;2022-10-16T12:50:37;18.40;99.90
26304;DHT22;57113;48.680;8.890;2022-10-16T12:53:17;18.40;99.90
26304;DHT22;57113;48.680;8.890;2022-10-16T12:55:47;18.40;99.90
26304;DHT22;57113;48.680;8.890;2022-10-16T12:58:23;18.30;99.90
26304;DHT22;57113;48.680;8.890;2022-10-16T13:00:56;18.30;99.90
26304;DHT22;57113;48.680;8.890;2022-10-16T13:13:40;18.30;99.90
26304;DHT22;57113;48.680;8.890;2022-10-16T13:18:59;18.30;99.90
26304;DHT22;57113;48.680;8.890;2022-10-16T13:26:28;18.30;99.90
26304;DHT22;57113;48.680;8.890;2022-10-16T13:28:59;18.30;99.90
26304;DHT22;57113;48.680;8.890;2022-10-16T13:31:26;18.30;99.90
26304;DHT22;57113;48.680;8.890;2022-10-16T13:33:52;18.30;99.90
26304;DHT22;57113;48.680;8.890;2022-10-16T13:36:34;18.30;99.90
26304;DHT22;57113;48.680;8.890;2022-10-16T13:39:10;18.30;99.90
26304;DHT22;57113;48.680;8.890;2022-10-16T13:41:36;18.40;99.90
26304;DHT22;57113;48.680;8.890;2022-10-16T13:44:01;18.40;99.90
26304;DHT22;57113;48.680;8.890;2022-10-16T13:46:27;18.40;99.90
26304;DHT22;57113;48.680;8.890;2022-10-16T13:48:59;18.40;99.90
26304;DHT22;57113;48.680;8.890;2022-10-16T13:51:24;18.30;99.90
26304;DHT22;57113;48.680;8.890;2022-10-16T13:53:50;18.40;99.90
26304;DHT22;57113;48.680;8.890;2022-10-16T13:56:20;18.30;99.90
26304;DHT22;57113;48.680;8.890;2022-10-16T13:58:57;18.30;99.90
26304;DHT22;57113;48.680;8.890;2022-10-16T14:01:26;18.30;99.90
26304;DHT22;57113;48.680;8.890;2022-10-16T14:03:52;18.30;99.90
26304;DHT22;57113;48.680;8.890;2022-10-16T14:06:19;18.30;99.90
26304;DHT22;57113;48.680;8.890;2022-10-16T14:09:05;18.30;99.90
26304;DHT22;57113;48.680;8.890;2022-10-16T14:11:31;18.30;99.90
26304;DHT22;57113;48.680;8.890;2022-10-16T14:13:57;18.30;99.90
26304;DHT22;57113;48.680;8.890;2022-10-16T14:16:27;18.30;99.90
26304;DHT22;57113;48.680;8.890;2022-10-16T14:21:19;18.30;99.90
26304;DHT22;57113;48.680;8.890;2022-10-16T14:23:45;18.30;99.90
26304;DHT22;57113;48.680;8.890;2022-10-16T14:28:38;18.30;99.90
26304;DHT22;57113;48.680;8.890;2022-10-16T14:31:24;18.30;99.90
26304;DHT22;57113;48.680;8.890;2022-10-16T14:33:50;18.30;99.90
26304;DHT22;57113;48.680;8.890;2022-10-16T14:36:15;18.40;99.90
26304;DHT22;57113;48.680;8.890;2022-10-16T14:39:05;18.30;99.90
26304;DHT22;57113;48.680;8.890;2022-10-16T14:41:31;18.30;99.90
26304;DHT22;57113;48.680;8.890;2022-10-16T14:44:01;18.30;99.90
26304;DHT22;57113;48.680;8.890;2022-10-16T14:46:28;18.40;99.90
26304;DHT22;57113;48.680;8.890;2022-10-16T14:51:35;18.40;99.90
26304;DHT22;57113;48.680;8.890;2022-10-16T14:54:00;18.40;99.90
26304;DHT22;57113;48.680;8.890;2022-10-16T14:56:31;18.40;99.90
26304;DHT22;57113;48.680;8.890;2022-10-16T14:58:59;18.40;99.90
26304;DHT22;57113;48.680;8.890;2022-10-16T15:01:26;18.50;99.90
26304;DHT22;57113;48.680;8.890;2022-10-16T15:03:51;18.50;99.90
26304;DHT22;57113;48.680;8.890;2022-10-16T15:06:20;18.50;99.90
26304;DHT22;57113;48.680;8.890;2022-10-16T15:08:46;18.50;99.90
26304;DHT22;57113;48.680;8.890;2022-10-16T15:11:15;18.60;99.90
26304;DHT22;57113;48.680;8.890;2022-10-16T15:13:41;18.60;99.90
26304;DHT22;57113;48.680;8.890;2022-10-16T15:16:10;18.60;99.90
26304;DHT22;57113;48.680;8.890;2022-10-16T15:18:36;18.50;99.90
26304;DHT22;57113;48.680;8.890;2022-10-16T15:21:01;18.60;99.90
26304;DHT22;57113;48.680;8.890;2022-10-16T15:23:27;18.60;99.90
26304;DHT22;57113;48.680;8.890;2022-10-16T15:25:53;18.50;99.90
26304;DHT22;57113;48.680;8.890;2022-10-16T15:28:19;18.60;99.90
26304;DHT22;57113;48.680;8.890;2022-10-16T15:30:45;18.50;99.90
26304;DHT22;57113;48.680;8.890;2022-10-16T15:33:15;18.50;99.90
26304;DHT22;57113;48.680;8.890;2022-10-16T15:35:41;18.60;99.90
26304;DHT22;57113;48.680;8.890;2022-10-16T15:38:08;18.70;99.90
26304;DHT22;57113;48.680;8.890;2022-10-16T15:40:36;18.80;99.90
26304;DHT22;57113;48.680;8.890;2022-10-16T15:43:02;18.90;99.90
26304;DHT22;57113;48.680;8.890;2022-10-16T15:45:27;18.90;99.90
26304;DHT22;57113;48.680;8.890;2022-10-16T15:47:53;18.90;99.90
26304;DHT22;57113;48.680;8.890;2022-10-16T15:50:18;18.80;99.90
26304;DHT22;57113;48.680;8.890;2022-10-16T15:52:44;18.90;99.90
26304;DHT22;57113;48.680;8.890;2022-10-16T15:55:10;18.80;99.90
26304;DHT22;57113;48.680;8.890;2022-10-16T15:57:36;18.90;99.90
26304;DHT22;57113;48.680;8.890;2022-10-16T16:00:21;18.90;99.90
26304;DHT22;57113;48.680;8.890;2022-10-16T16:02:50;18.90;99.90
26304;DHT22;57113;48.680;8.890;2022-10-16T16:05:17;18.90;99.90
26304;DHT22;57113;48.680;8.890;2022-10-16T16:07:42;18.90;99.90
26304;DHT22;57113;48.680;8.890;2022-10-16T16:10:09;18.90;99.90
26304;DHT22;57113;48.680;8.890;2022-10-16T16:12:34;18.90;99.90
26304;DHT22;57113;48.680;8.890;2022-10-16T16:15:00;18.90;99.90
26304;DHT22;57113;48.680;8.890;2022-10-16T16:17:26;18.80;99.90
26304;DHT22;57113;48.680;8.890;2022-10-16T16:19:51;18.80;99.90
26304;DHT22;57113;48.680;8.890;2022-10-16T16:22:17;18.90;99.90
26304;DHT22;57113;48.680;8.890;2022-10-16T16:24:42;18.90;99.90
26304;DHT22;57113;48.680;8.890;2022-10-16T16:27:08;18.80;99.90
26304;DHT22;57113;48.680;8.890;2022-10-16T16:29:34;18.90;99.90
26304;DHT22;57113;48.680;8.890;2022-10-16T16:32:00;18.90;99.90
26304;DHT22;57113;48.680;8.890;2022-10-16T16:34:28;18.80;99.90
26304;DHT22;57113;48.680;8.890;2022-10-16T16:36:54;18.90;99.90
26304;DHT22;57113;48.680;8.890;2022-10-16T16:39:20;18.90;99.90
26304;DHT22;57113;48.680;8.890;2022-10-16T16:41:46;18.90;99.90
26304;DHT22;57113;48.680;8.890;2022-10-16T16:44:12;18.90;99.90
26304;DHT22;57113;48.680;8.890;2022-10-16T16:46:37;19.00;99.90
26304;DHT22;57113;48.680;8.890;2022-10-16T16:49:05;19.00;99.90
26304;DHT22;57113;48.680;8.890;2022-10-16T16:51:31;19.00;99.90
26304;DHT22;57113;48.680;8.890;2022-10-16T16:53:56;19.00;99.90
26304;DHT22;57113;48.680;8.890;2022-10-16T16:56:22;19.10;99.90
26304;DHT22;57113;48.680;8.890;2022-10-16T16:58:49;19.00;99.90
26304;DHT22;57113;48.680;8.890;2022-10-16T17:01:15;19.10;99.90
26304;DHT22;57113;48.680;8.890;2022-10-16T17:03:41;19.10;99.90
26304;DHT22;57113;48.680;8.890;2022-10-16T17:06:09;19.00;99.90
26304;DHT22;57113;48.680;8.890;2022-10-16T17:08:35;19.10;99.90
26304;DHT22;57113;48.680;8.890;2022-10-16T17:11:00;19.00;99.90
26304;DHT22;57113;48.680;8.890;2022-10-16T17:13:31;19.00;99.90
26304;DHT22;57113;48.680;8.890;2022-10-16T17:16:00;19.00;99.90
26304;DHT22;57113;48.680;8.890;2022-10-16T17:18:25;18.90;99.90
26304;DHT22;57113;48.680;8.890;2022-10-16T17:20:51;19.00;99.90
26304;DHT22;57113;48.680;8.890;2022-10-16T17:23:18;19.00;99.90
26304;DHT22;57113;48.680;8.890;2022-10-16T17:25:44;18.90;99.90
26304;DHT22;57113;48.680;8.890;2022-10-16T17:28:10;18.90;99.90
26304;DHT22;57113;48.680;8.890;2022-10-16T17:30:41;18.90;99.90
26304;DHT22;57113;48.680;8.890;2022-10-16T17:33:08;18.90;99.90